Nearby METAR Reports

 

NZWN - Wellington Intl, New Zealand
Distance from station: SSE 156km
Updated: Mon, 23-Jul-2018 5:30am NZST
Clear
Clear
 Wind from NNW
Wind: NNW 19 km/h
Temperature: 10°C
Wind Chill: 7°C
Dew Point: 3°C
Humidity: 62%
Barometer: 1007 hPa
Clouds: Clear
Visibility: 10 km
2018/07/22 17:30 NZWN 221730Z AUTO 34010KT 310V010 9999 NCD 10/03 Q1007 NOSIG
NZAA - Auckland Intl Ar, New Zealand
Distance from station: N 334km
Updated: Mon, 23-Jul-2018 5:30am NZST
Few Clouds
Few Clouds
 Wind from NNE
Wind: NNE 9 km/h
Temperature: 8°C
Wind Chill: 6°C
Dew Point: 7°C
Humidity: 93%
Barometer: 1015 hPa
Clouds: Few Clouds
Visibility: 10 km
Cloud details: Few Clouds 945 m
2018/07/22 17:30 NZAA 221730Z AUTO 02005KT 9999 FEW031/// 08/07 Q1015 TEMPO 9999 -SHRA
 
NZWP - Whenuapai (nz-Af, New Zealand
Distance from station: N 359km
Updated: Mon, 09-Jul-2018 7:00pm NZST
NOT Current
Nearby showers, Partly cloudy
Nearby showers, Partly cloudy
 Wind from WNW
Wind: WNW 28 km/h
Temperature: 13°C
Dew Point: 9°C
Humidity: 77%
Barometer: 1002 hPa
Summary: Nearby Showers
Clouds: Partly cloudy
Cloud details: Few Clouds 610 m
Partly cloudy 1433 m
2018/07/09 07:00 NZWP 090700Z 30015KT 18KM VCSH FEW020 SCT047 13/09 Q1002 TEMPO 3000 TSRAGS SCT020CB
NZCH - Christchurch Int, New Zealand
Distance from station: SSW 412km
Updated: Mon, 23-Jul-2018 5:30am NZST
Light drizzle, Mostly cloudy
Light drizzle, Mostly cloudy
 Wind from SW
Wind: SW 11 km/h
Temperature: 7°C
Wind Chill: 5°C
Dew Point: 4°C
Humidity: 81%
Barometer: 1005 hPa
Summary: Light Drizzle
Clouds: Mostly cloudy
Visibility: 10 km
Cloud details: Partly cloudy 1463 m
Mostly cloudy 2134 m
2018/07/22 17:30 NZCH 221730Z AUTO 23006KT 9999 -DZ SCT048/// BKN070/// 07/04 Q1005 TEMPO 5000 SHRA

Metar display script from Saratoga-Weather.org